createdAt,value
2022-07-28T00:01:23.404Z,56.87
2022-07-28T00:03:49.878Z,57.09
2022-07-28T00:06:17.089Z,57.65
2022-07-28T00:08:43.561Z,58.00
2022-07-28T00:11:10.099Z,58.25
2022-07-28T00:13:36.867Z,59.42
2022-07-28T00:16:03.966Z,58.77
2022-07-28T00:18:30.485Z,59.99
2022-07-28T00:20:58.007Z,59.08
2022-07-28T00:23:24.549Z,60.17
2022-07-28T00:26:06.179Z,61.96
2022-07-28T00:28:32.613Z,61.75
2022-07-28T00:30:59.090Z,62.20
2022-07-28T00:33:34.134Z,62.14
2022-07-28T00:36:00.740Z,60.65
2022-07-28T00:38:27.189Z,61.73
2022-07-28T00:41:11.738Z,61.86
2022-07-28T00:43:44.795Z,60.86
2022-07-28T00:46:13.018Z,60.89
2022-07-28T00:48:42.959Z,61.07
2022-07-28T00:51:10.296Z,61.37
2022-07-28T00:53:40.671Z,61.94
2022-07-28T00:56:07.743Z,62.45
2022-07-28T00:58:38.198Z,61.92
2022-07-28T01:01:06.196Z,61.96
2022-07-28T01:03:34.879Z,62.05
2022-07-28T01:06:10.050Z,60.92
2022-07-28T01:09:20.820Z,58.49
2022-07-28T01:12:10.989Z,58.06
2022-07-28T01:14:39.090Z,59.24
2022-07-28T01:17:24.209Z,60.22
2022-07-28T01:20:03.758Z,60.75
2022-07-28T01:22:35.104Z,61.17
2022-07-28T01:25:16.391Z,62.03
2022-07-28T01:27:57.004Z,62.26
2022-07-28T01:30:41.208Z,62.54
2022-07-28T01:33:15.536Z,62.79
2022-07-28T01:35:46.453Z,62.22
2022-07-28T01:38:14.151Z,63.17
2022-07-28T01:40:45.346Z,63.22
2022-07-28T01:43:21.128Z,60.91
2022-07-28T01:45:47.606Z,60.35
2022-07-28T01:48:16.944Z,61.93
2022-07-28T01:50:45.044Z,63.30
2022-07-28T01:53:15.697Z,62.78
2022-07-28T01:55:47.623Z,63.31
2022-07-28T01:58:16.842Z,63.56
2022-07-28T02:00:47.610Z,63.23
2022-07-28T02:03:15.561Z,63.88
2022-07-28T02:05:43.606Z,64.18
2022-07-28T02:08:12.784Z,64.74
2022-07-28T02:10:42.566Z,65.15
2022-07-28T02:13:11.143Z,65.27
2022-07-28T02:15:39.255Z,65.11
2022-07-28T02:18:07.866Z,64.97
2022-07-28T02:20:35.878Z,64.43
2022-07-28T02:23:02.793Z,64.87
2022-07-28T02:25:30.906Z,64.44
2022-07-28T02:28:03.748Z,65.63
2022-07-28T02:30:41.324Z,65.83
2022-07-28T02:33:57.786Z,66.01
2022-07-28T02:36:20.007Z,65.36
2022-07-28T02:38:49.473Z,65.25
2022-07-28T02:41:20.172Z,65.20
2022-07-28T02:43:49.777Z,65.84
2022-07-28T02:46:20.197Z,66.34
2022-07-28T02:48:52.427Z,66.91
2022-07-28T02:51:23.375Z,66.35
2022-07-28T02:53:51.109Z,67.01
2022-07-28T02:56:18.206Z,67.15
2022-07-28T02:58:45.712Z,67.24
2022-07-28T03:01:13.348Z,68.69
2022-07-28T03:03:43.924Z,68.58
2022-07-28T03:06:10.773Z,69.11
2022-07-28T03:08:37.283Z,70.03
2022-07-28T03:11:14.248Z,68.95
2022-07-28T03:13:40.782Z,68.55
2022-07-28T03:16:08.132Z,69.46
2022-07-28T03:18:34.680Z,69.97
2022-07-28T03:21:01.549Z,70.92
2022-07-28T03:23:40.151Z,70.33
2022-07-28T03:26:13.042Z,70.19
2022-07-28T03:28:40.334Z,71.05
2022-07-28T03:31:11.058Z,71.33
2022-07-28T03:33:38.583Z,71.32
2022-07-28T03:36:13.496Z,70.80
2022-07-28T03:38:48.684Z,70.60
2022-07-28T03:41:16.665Z,70.91
2022-07-28T03:43:44.241Z,71.21
2022-07-28T03:46:13.272Z,72.05
2022-07-28T03:48:40.138Z,71.46
2022-07-28T03:51:06.690Z,72.07
2022-07-28T03:53:33.213Z,72.69
2022-07-28T03:55:59.662Z,72.30
2022-07-28T03:58:28.875Z,72.45
2022-07-28T04:00:56.863Z,72.36
2022-07-28T04:03:42.907Z,72.18
2022-07-28T04:06:15.037Z,71.58
2022-07-28T04:08:42.208Z,71.78
2022-07-28T04:11:08.728Z,72.34
2022-07-28T04:13:36.929Z,72.63
2022-07-28T04:16:05.411Z,71.63
2022-07-28T04:18:31.826Z,71.75
2022-07-28T04:20:58.355Z,71.79
2022-07-28T04:23:25.387Z,71.30
2022-07-28T04:25:51.883Z,72.02
2022-07-28T04:28:18.294Z,67.52
2022-07-28T04:30:44.878Z,68.94
2022-07-28T04:33:12.592Z,70.12
2022-07-28T04:35:38.991Z,70.19
2022-07-28T04:38:05.900Z,70.83
2022-07-28T04:40:33.631Z,70.87
2022-07-28T04:43:00.342Z,71.15
2022-07-28T04:45:26.833Z,71.42
2022-07-28T04:47:53.287Z,71.52
2022-07-28T04:50:21.380Z,71.82
2022-07-28T04:52:49.330Z,71.87
2022-07-28T04:55:16.417Z,71.31
2022-07-28T04:57:43.467Z,71.04
2022-07-28T05:00:13.233Z,70.23
2022-07-28T05:02:41.757Z,70.95
2022-07-28T05:05:09.133Z,71.48
2022-07-28T05:07:36.443Z,70.07
2022-07-28T05:10:04.725Z,69.81
2022-07-28T05:12:31.162Z,69.88
2022-07-28T05:14:57.620Z,69.49
2022-07-28T05:17:24.329Z,69.48
2022-07-28T05:19:50.840Z,70.34
2022-07-28T05:22:17.512Z,69.04
2022-07-28T05:24:44.049Z,69.83
2022-07-28T05:27:12.160Z,69.60
2022-07-28T05:29:46.751Z,69.39
2022-07-28T05:32:16.688Z,69.14
2022-07-28T05:34:44.101Z,69.05
2022-07-28T05:37:10.488Z,68.41
2022-07-28T05:39:37.566Z,68.86
2022-07-28T05:42:04.348Z,67.82
2022-07-28T05:44:35.754Z,68.44
2022-07-28T05:47:04.202Z,67.34
2022-07-28T05:49:31.450Z,65.74
2022-07-28T05:51:57.888Z,64.42
2022-07-28T05:54:24.361Z,63.10
2022-07-28T05:56:51.138Z,62.59
2022-07-28T05:59:17.691Z,62.51
2022-07-28T06:01:44.234Z,62.09
2022-07-28T06:04:26.566Z,61.88
2022-07-28T06:06:54.587Z,62.19
2022-07-28T06:09:21.124Z,61.83
2022-07-28T06:11:47.682Z,60.60
2022-07-28T06:14:14.463Z,60.97
2022-07-28T06:16:41.200Z,60.89
2022-07-28T06:19:07.596Z,60.19
2022-07-28T06:21:34.015Z,58.65
2022-07-28T06:24:00.459Z,59.34
2022-07-28T06:26:26.893Z,57.66
2022-07-28T06:28:53.405Z,52.84
2022-07-28T06:31:19.880Z,51.17
2022-07-28T06:33:46.317Z,50.25
2022-07-28T06:36:12.786Z,49.66
2022-07-28T06:38:39.211Z,49.43
2022-07-28T06:41:05.669Z,48.60
2022-07-28T06:43:38.254Z,48.66
2022-07-28T06:46:05.123Z,48.63
2022-07-28T06:48:31.537Z,49.15
2022-07-28T06:50:59.633Z,48.59
2022-07-28T06:53:28.026Z,48.33
2022-07-28T06:56:00.289Z,48.29
2022-07-28T06:58:26.741Z,48.56
2022-07-28T07:00:53.376Z,48.33
2022-07-28T07:03:19.991Z,48.30
2022-07-28T07:05:46.401Z,48.55
2022-07-28T07:08:18.114Z,48.24
2022-07-28T07:10:44.506Z,49.26
2022-07-28T07:13:12.790Z,49.48
2022-07-28T07:15:39.896Z,49.17
2022-07-28T07:18:06.406Z,49.79
2022-07-28T07:20:32.831Z,49.94
2022-07-28T07:22:59.308Z,50.41
2022-07-28T07:25:25.791Z,49.38
2022-07-28T07:27:52.208Z,48.65
2022-07-28T07:30:18.911Z,49.02
2022-07-28T07:32:45.372Z,49.14
2022-07-28T07:35:12.407Z,49.35
2022-07-28T07:37:39.108Z,49.09
2022-07-28T07:40:06.516Z,49.29
2022-07-28T07:42:33.054Z,48.58
2022-07-28T07:44:59.610Z,48.49
2022-07-28T07:47:26.130Z,48.07
2022-07-28T07:49:52.773Z,48.08
2022-07-28T07:52:19.188Z,47.77
2022-07-28T07:54:45.707Z,48.87
2022-07-28T07:57:12.274Z,48.34
2022-07-28T07:59:38.727Z,48.64
2022-07-28T08:02:05.728Z,47.66
2022-07-28T08:04:32.398Z,48.37
2022-07-28T08:07:05.572Z,48.09
2022-07-28T08:09:32.425Z,48.90
2022-07-28T08:11:58.873Z,48.12
2022-07-28T08:14:25.378Z,48.60
2022-07-28T08:16:52.292Z,48.19
2022-07-28T08:19:21.384Z,49.17
2022-07-28T08:21:48.281Z,49.04
2022-07-28T08:24:27.452Z,49.30
2022-07-28T08:26:59.813Z,49.29
2022-07-28T08:29:26.295Z,49.38
2022-07-28T08:31:52.816Z,49.15
2022-07-28T08:34:31.587Z,49.09
2022-07-28T08:37:02.583Z,48.71
2022-07-28T08:39:30.128Z,47.53
2022-07-28T08:42:16.421Z,47.97
2022-07-28T08:44:47.568Z,47.58
2022-07-28T08:47:15.979Z,47.31
2022-07-28T08:49:42.939Z,47.10
2022-07-28T08:52:13.836Z,47.12
2022-07-28T08:54:48.361Z,46.29
2022-07-28T08:57:26.223Z,46.73
2022-07-28T08:59:52.861Z,47.27
2022-07-28T09:02:20.155Z,48.03
2022-07-28T09:04:48.057Z,47.83
2022-07-28T09:07:14.973Z,48.18
2022-07-28T09:09:41.551Z,47.44
2022-07-28T09:12:08.359Z,47.30
2022-07-28T09:14:35.415Z,47.83
2022-07-28T09:17:02.913Z,47.83
2022-07-28T09:19:34.532Z,48.14
2022-07-28T09:22:02.906Z,47.74
2022-07-28T09:24:42.383Z,47.75
2022-07-28T09:27:11.408Z,47.41
2022-07-28T09:29:40.283Z,46.49
2022-07-28T09:32:07.715Z,46.86
2022-07-28T09:34:45.491Z,45.85
2022-07-28T09:37:23.445Z,46.40
2022-07-28T09:39:54.403Z,46.18
2022-07-28T09:42:21.247Z,45.87
2022-07-28T09:45:22.359Z,45.19
2022-07-28T09:47:49.986Z,44.62
2022-07-28T09:50:21.366Z,44.38
2022-07-28T09:52:47.784Z,43.69
2022-07-28T09:55:14.310Z,43.73
2022-07-28T09:57:42.658Z,44.32
2022-07-28T10:00:25.826Z,44.65
2022-07-28T10:02:54.332Z,44.43
2022-07-28T10:05:20.866Z,44.42
2022-07-28T10:07:50.582Z,44.23
2022-07-28T10:10:20.669Z,44.29
2022-07-28T10:12:47.077Z,44.51
2022-07-28T10:15:38.077Z,44.74
2022-07-28T10:18:13.054Z,43.50
2022-07-28T10:20:39.844Z,43.91
2022-07-28T10:23:11.472Z,43.59
2022-07-28T10:25:39.941Z,43.14
2022-07-28T10:28:06.619Z,43.30
2022-07-28T10:30:39.269Z,43.01
2022-07-28T10:33:15.275Z,42.81
2022-07-28T10:35:54.480Z,42.25
2022-07-28T10:38:23.901Z,41.56
2022-07-28T10:40:52.631Z,42.05
2022-07-28T10:43:19.967Z,41.11
2022-07-28T10:46:04.963Z,40.79
2022-07-28T10:48:32.608Z,41.37
2022-07-28T10:51:00.701Z,42.11
2022-07-28T10:53:40.813Z,42.43
2022-07-28T10:56:43.536Z,42.96
2022-07-28T10:59:29.019Z,42.45
2022-07-28T11:01:55.641Z,41.84
2022-07-28T11:04:47.886Z,42.01
2022-07-28T11:07:16.802Z,42.12
2022-07-28T11:09:44.602Z,41.97
2022-07-28T11:12:15.210Z,42.74
2022-07-28T11:14:42.842Z,42.87
2022-07-28T11:17:11.270Z,42.91
2022-07-28T11:19:55.788Z,42.84
2022-07-28T11:22:30.430Z,43.20
2022-07-28T11:25:21.212Z,42.06
2022-07-28T11:27:52.124Z,42.51
2022-07-28T11:30:18.890Z,42.38
2022-07-28T11:32:51.569Z,42.56
2022-07-28T11:35:19.636Z,42.47
2022-07-28T11:38:07.835Z,42.02
2022-07-28T11:40:38.948Z,41.25
2022-07-28T11:43:36.690Z,41.28
2022-07-28T11:46:04.574Z,40.71
2022-07-28T11:48:33.873Z,40.08
2022-07-28T11:51:03.310Z,39.87
2022-07-28T11:53:43.185Z,39.92
2022-07-28T11:56:35.999Z,40.71
2022-07-28T11:59:05.274Z,39.85
2022-07-28T12:01:37.076Z,40.16
2022-07-28T12:04:17.558Z,39.71
2022-07-28T12:06:49.622Z,39.43
2022-07-28T12:09:23.289Z,39.71
2022-07-28T12:11:55.256Z,40.13
2022-07-28T12:14:22.797Z,40.48
2022-07-28T12:16:53.309Z,40.25
2022-07-28T12:19:20.680Z,40.28
2022-07-28T12:21:55.352Z,40.56
2022-07-28T12:24:44.798Z,39.59
2022-07-28T12:27:13.537Z,39.54
2022-07-28T12:29:42.089Z,39.81
2022-07-28T12:32:09.944Z,40.23
2022-07-28T12:34:39.847Z,40.08
2022-07-28T12:37:09.709Z,40.02
2022-07-28T12:39:39.375Z,40.31
2022-07-28T12:42:12.948Z,40.52
2022-07-28T12:44:44.995Z,40.58
2022-07-28T12:47:13.011Z,40.39
2022-07-28T12:49:42.372Z,39.48
2022-07-28T12:52:15.953Z,39.89
2022-07-28T12:54:42.398Z,39.65
2022-07-28T12:57:48.691Z,40.07
2022-07-28T13:00:19.463Z,39.07
2022-07-28T13:02:46.838Z,38.76
2022-07-28T13:05:54.372Z,38.74
2022-07-28T13:08:22.289Z,39.67
2022-07-28T13:10:51.645Z,39.46
2022-07-28T13:13:20.799Z,39.88
2022-07-28T13:16:10.549Z,39.31
2022-07-28T13:18:46.604Z,39.13
2022-07-28T13:21:13.344Z,39.67
2022-07-28T13:23:39.770Z,39.90
2022-07-28T13:26:07.650Z,39.32
2022-07-28T13:28:34.721Z,39.60
2022-07-28T13:31:01.138Z,39.89
2022-07-28T13:33:28.353Z,39.47
2022-07-28T13:35:55.255Z,39.21
2022-07-28T13:38:21.714Z,39.23
2022-07-28T13:40:48.132Z,39.67
2022-07-28T13:43:14.548Z,38.84
2022-07-28T13:45:41.352Z,39.20
2022-07-28T13:48:09.253Z,40.28
2022-07-28T13:50:35.773Z,39.54
2022-07-28T13:53:02.271Z,39.59
2022-07-28T13:55:28.824Z,39.90
2022-07-28T13:57:56.626Z,40.08
2022-07-28T14:00:23.732Z,39.85
2022-07-28T14:02:50.874Z,39.83
2022-07-28T14:05:17.476Z,39.27
2022-07-28T14:07:48.590Z,39.62
2022-07-28T14:10:17.707Z,39.85
2022-07-28T14:12:44.952Z,39.53
2022-07-28T14:15:12.876Z,39.59
2022-07-28T14:17:45.225Z,39.75
2022-07-28T14:20:14.700Z,39.54
2022-07-28T14:22:42.518Z,39.93
2022-07-28T14:25:09.550Z,39.74
2022-07-28T14:27:36.300Z,39.59
2022-07-28T14:30:04.080Z,39.74
2022-07-28T14:32:32.223Z,39.19
2022-07-28T14:34:58.730Z,39.16
2022-07-28T14:37:26.584Z,38.09
2022-07-28T14:39:53.304Z,38.40
2022-07-28T14:42:19.816Z,38.83
2022-07-28T14:44:46.295Z,39.45
2022-07-28T14:47:12.926Z,39.37
2022-07-28T14:49:57.797Z,39.17
2022-07-28T14:52:28.281Z,38.79
2022-07-28T14:54:55.019Z,39.06
2022-07-28T14:57:24.408Z,39.35
2022-07-28T14:59:51.558Z,39.64
2022-07-28T15:02:18.188Z,39.24
2022-07-28T15:04:44.719Z,39.59
2022-07-28T15:07:12.034Z,38.86
2022-07-28T15:09:42.711Z,39.31
2022-07-28T15:12:10.754Z,39.36
2022-07-28T15:14:37.253Z,39.46
2022-07-28T15:17:03.683Z,39.48
2022-07-28T15:19:33.449Z,39.44
2022-07-28T15:22:00.970Z,39.87
2022-07-28T15:24:30.488Z,39.20
2022-07-28T15:26:57.685Z,39.28
2022-07-28T15:29:24.262Z,39.28
2022-07-28T15:31:52.250Z,39.54
2022-07-28T15:34:19.507Z,39.57
2022-07-28T15:36:46.210Z,38.92
2022-07-28T15:39:15.597Z,39.45
2022-07-28T15:41:46.414Z,38.99
2022-07-28T15:44:14.514Z,39.05
2022-07-28T15:46:41.262Z,39.21
2022-07-28T15:49:10.819Z,39.42
2022-07-28T15:51:38.231Z,39.17
2022-07-28T15:54:05.739Z,39.51
2022-07-28T15:56:35.351Z,39.15
2022-07-28T15:59:04.419Z,39.20
2022-07-28T16:01:31.067Z,39.59
2022-07-28T16:03:59.170Z,39.28
2022-07-28T16:06:26.561Z,39.03
2022-07-28T16:08:53.045Z,39.25
2022-07-28T16:11:19.573Z,39.26
2022-07-28T16:13:45.985Z,39.15
2022-07-28T16:16:14.368Z,38.84
2022-07-28T16:18:43.062Z,39.56
2022-07-28T16:21:10.677Z,39.28
2022-07-28T16:23:37.430Z,39.29
2022-07-28T16:26:07.650Z,39.25
2022-07-28T16:28:34.317Z,39.65
2022-07-28T16:31:00.822Z,39.28
2022-07-28T16:33:27.310Z,39.42
2022-07-28T16:35:59.795Z,39.43
2022-07-28T16:38:26.286Z,39.29
2022-07-28T16:40:52.725Z,39.30
2022-07-28T16:43:19.161Z,39.66
2022-07-28T16:45:45.585Z,39.72
2022-07-28T16:48:11.993Z,39.81
2022-07-28T16:50:39.070Z,38.70
2022-07-28T16:53:08.770Z,39.49
2022-07-28T16:55:35.492Z,39.69
2022-07-28T16:58:01.920Z,39.45
2022-07-28T17:00:29.426Z,39.74
2022-07-28T17:02:55.872Z,39.52
2022-07-28T17:05:23.535Z,39.85
2022-07-28T17:07:51.863Z,39.76
2022-07-28T17:10:20.240Z,39.27
2022-07-28T17:12:49.736Z,39.27
2022-07-28T17:15:21.990Z,39.93
2022-07-28T17:17:49.108Z,39.46
2022-07-28T17:20:16.561Z,39.62
2022-07-28T17:22:43.204Z,39.83
2022-07-28T17:25:28.550Z,39.27
2022-07-28T17:27:56.182Z,40.05
2022-07-28T17:30:22.681Z,40.03
2022-07-28T17:32:49.147Z,40.50
2022-07-28T17:35:34.467Z,40.16
2022-07-28T17:38:03.214Z,39.90
2022-07-28T17:40:29.859Z,40.54
2022-07-28T17:42:56.297Z,40.20
2022-07-28T17:45:23.927Z,40.18
2022-07-28T17:47:50.882Z,40.36
2022-07-28T17:50:18.192Z,40.25
2022-07-28T17:52:45.618Z,39.96
2022-07-28T17:55:34.472Z,40.25
2022-07-28T17:58:14.487Z,40.23
2022-07-28T18:00:50.407Z,40.25
2022-07-28T18:03:17.783Z,40.21
2022-07-28T18:05:44.831Z,40.27
2022-07-28T18:08:12.183Z,41.07
2022-07-28T18:10:38.986Z,40.24
2022-07-28T18:13:07.041Z,40.47
2022-07-28T18:15:35.693Z,40.41
2022-07-28T18:18:03.753Z,40.46
2022-07-28T18:20:30.834Z,40.52
2022-07-28T18:22:57.963Z,40.89
2022-07-28T18:25:29.913Z,41.10
2022-07-28T18:27:56.955Z,41.20
2022-07-28T18:30:24.113Z,41.10
2022-07-28T18:32:51.155Z,41.20
2022-07-28T18:35:19.437Z,40.98
2022-07-28T18:37:46.643Z,40.98
2022-07-28T18:40:14.819Z,41.79
2022-07-28T18:42:41.714Z,41.85
2022-07-28T18:45:08.873Z,41.49
2022-07-28T18:47:37.360Z,41.54
2022-07-28T18:50:30.467Z,41.85
2022-07-28T18:52:58.672Z,42.18
2022-07-28T18:55:25.195Z,41.92
2022-07-28T18:57:51.655Z,41.50
2022-07-28T19:00:18.087Z,41.62
2022-07-28T19:02:44.632Z,42.60
2022-07-28T19:05:11.218Z,42.63
2022-07-28T19:07:37.741Z,42.37
2022-07-28T19:10:04.929Z,41.99
2022-07-28T19:12:31.471Z,42.32
2022-07-28T19:14:58.800Z,42.28
2022-07-28T19:17:26.321Z,42.82
2022-07-28T19:19:56.059Z,42.20
2022-07-28T19:22:23.865Z,42.61
2022-07-28T19:24:51.886Z,42.84
2022-07-28T19:27:19.381Z,42.99
2022-07-28T19:29:46.193Z,42.90
2022-07-28T19:32:12.712Z,43.36
2022-07-28T19:34:39.161Z,42.99
2022-07-28T19:37:06.524Z,42.65
2022-07-28T19:39:34.410Z,42.96
2022-07-28T19:42:00.895Z,44.21
2022-07-28T19:44:29.938Z,45.27
2022-07-28T19:47:00.359Z,46.06
2022-07-28T19:49:26.922Z,46.32
2022-07-28T19:51:53.518Z,46.24
2022-07-28T19:54:21.285Z,47.12
2022-07-28T19:56:47.797Z,47.85
2022-07-28T19:59:14.240Z,48.56
2022-07-28T20:01:46.622Z,48.74
2022-07-28T20:04:13.683Z,48.78
2022-07-28T20:06:40.081Z,48.66
2022-07-28T20:09:06.587Z,47.94
2022-07-28T20:11:33.305Z,48.02
2022-07-28T20:14:00.936Z,48.25
2022-07-28T20:16:27.499Z,48.03
2022-07-28T20:18:54.004Z,47.57
2022-07-28T20:21:21.300Z,48.06
2022-07-28T20:23:47.857Z,48.88
2022-07-28T20:26:14.582Z,47.16
2022-07-28T20:28:41.017Z,47.88
2022-07-28T20:31:07.649Z,48.42
2022-07-28T20:33:34.329Z,49.53
2022-07-28T20:36:00.786Z,50.19
2022-07-28T20:38:27.225Z,50.31
2022-07-28T20:40:53.651Z,51.21
2022-07-28T20:43:20.099Z,51.79
2022-07-28T20:45:46.648Z,52.39
2022-07-28T20:48:14.603Z,52.80
2022-07-28T20:50:42.067Z,52.83
2022-07-28T20:53:09.937Z,53.43
2022-07-28T20:55:36.966Z,53.48
2022-07-28T20:58:05.862Z,53.77
2022-07-28T21:00:32.569Z,54.28
2022-07-28T21:02:59.060Z,54.46
2022-07-28T21:05:35.086Z,53.21
2022-07-28T21:08:05.869Z,54.21
2022-07-28T21:10:33.162Z,53.98
2022-07-28T21:12:59.580Z,53.86
2022-07-28T21:15:26.123Z,53.98
2022-07-28T21:17:55.942Z,54.48
2022-07-28T21:20:23.487Z,54.87
2022-07-28T21:22:49.951Z,55.25
2022-07-28T21:25:16.495Z,55.64
2022-07-28T21:28:01.593Z,55.67
2022-07-28T21:30:28.797Z,55.37
2022-07-28T21:32:55.297Z,54.62
2022-07-28T21:35:21.837Z,53.44
2022-07-28T21:37:48.263Z,53.98
2022-07-28T21:40:14.733Z,53.64
2022-07-28T21:42:45.882Z,53.21
2022-07-28T21:45:12.503Z,54.27
2022-07-28T21:47:38.938Z,54.48
2022-07-28T21:50:05.770Z,53.71
2022-07-28T21:52:32.198Z,54.33
2022-07-28T21:54:58.639Z,55.13
2022-07-28T21:57:25.470Z,54.92
2022-07-28T21:59:53.720Z,55.12
2022-07-28T22:02:20.460Z,54.72
2022-07-28T22:04:50.868Z,53.92
2022-07-28T22:07:17.405Z,54.05
2022-07-28T22:09:43.985Z,53.62
2022-07-28T22:12:10.394Z,52.95
2022-07-28T22:14:36.883Z,52.71
2022-07-28T22:17:03.681Z,52.52
2022-07-28T22:19:31.442Z,51.56
2022-07-28T22:21:58.934Z,52.03
2022-07-28T22:24:25.540Z,52.28
2022-07-28T22:26:52.135Z,50.89
2022-07-28T22:29:18.693Z,52.27
2022-07-28T22:31:45.699Z,51.84
2022-07-28T22:34:13.184Z,51.09
2022-07-28T22:36:39.907Z,52.28
2022-07-28T22:39:06.351Z,52.27
2022-07-28T22:41:32.852Z,51.13
2022-07-28T22:43:59.688Z,51.23
2022-07-28T22:46:26.201Z,50.58
2022-07-28T22:48:52.801Z,51.56
2022-07-28T22:51:19.464Z,50.88
2022-07-28T22:53:45.884Z,50.98
2022-07-28T22:56:12.489Z,52.29
2022-07-28T22:58:40.041Z,51.69
2022-07-28T23:01:07.164Z,51.80
2022-07-28T23:03:33.959Z,52.19
2022-07-28T23:06:01.337Z,52.44
2022-07-28T23:08:28.302Z,52.41
2022-07-28T23:10:55.116Z,52.77
2022-07-28T23:13:22.361Z,53.23
2022-07-28T23:15:48.830Z,53.24
2022-07-28T23:18:15.229Z,54.45
2022-07-28T23:20:43.325Z,54.10
2022-07-28T23:23:11.344Z,53.23
2022-07-28T23:25:40.479Z,54.34
2022-07-28T23:28:07.566Z,54.44
2022-07-28T23:30:34.318Z,54.34
2022-07-28T23:33:00.721Z,54.32
2022-07-28T23:35:27.498Z,54.54
2022-07-28T23:37:53.966Z,55.31
2022-07-28T23:40:21.025Z,57.34
2022-07-28T23:42:47.577Z,60.80
2022-07-28T23:45:14.549Z,66.55
2022-07-28T23:47:41.104Z,64.64
2022-07-28T23:50:07.978Z,63.66
2022-07-28T23:52:34.394Z,66.32
2022-07-28T23:55:00.810Z,66.44
2022-07-28T23:57:31.415Z,68.58
2022-07-28T23:59:59.118Z,68.15
